FIMP/MRU METAR and TAF weather

Enter ICAO airport designator
Station Type Date Time Source
FIMP METAR 2018/07/21 22:00 UTC NOAA

FIMP 212200Z 12012KT 9999 VCSH SCT015 22/16 Q1024


Station Type Date Time Source
FIMP Decoded METAR 2018/07/21 22:00 UTC NOAA

Plaisance Mauritius , Mauritius (FIMP) 20-26S 057-40E 57M
Jul 21, 2018 - 06:00 PM EDT / 2018.07.21 2200 UTC
Wind: from the ESE (120 degrees) at 14 MPH (12 KT):0
Visibility: greater than 7 mile(s):0
Sky conditions: partly cloudy
Weather: showers in the vicinity
Temperature: 71 F (22 C)
Dew Point: 60 F (16 C)
Relative Humidity: 68%
Pressure (altimeter): 30.24 in. Hg (1024 hPa)
ob: FIMP 212200Z 12012KT 9999 VCSH SCT015 22/16 Q1024
cycle: 22

Station Type Date Time Source
FIMP TAF 2018/07/21 18:27 UTC NOAA

TAF FIMP 211715Z 2118/2300 12015G25KT 9999 BKN015 BKN050
TEMPO 2115/2204 5000 -SHRA FEW008 BKN013 BKN045 PROB30
TEMPO 2215/2300 7000 -SHRA FEW010 BKN014 BKN050


Example: see airport list